KGAG/GAG METAR and TAF weather

Enter ICAO airport designator
Station Type Date Time Source
KGAG METAR 2021/03/06 01:53 UTC NOAA

KGAG 060153Z AUTO 13005KT 10SM CLR 07/04 A3026 RMK AO2 SLP249 T00720044 $


Station Type Date Time Source
KGAG Decoded METAR 2021/03/06 01:53 UTC NOAA

GAGE AIRPORT, OK, United States (KGAG) 36-18N 99-46W 668M
Mar 05, 2021 - 08:53 PM EST / 2021.03.06 0153 UTC
Wind: from the SE (130 degrees) at 6 MPH (5 KT):0
Visibility: 10 mile(s):0
Sky conditions: clear
Temperature: 45.0 F (7.2 C)
Dew Point: 39.9 F (4.4 C)
Relative Humidity: 82%
Pressure (altimeter): 30.26 in. Hg (1024 hPa)
ob: KGAG 060153Z AUTO 13005KT 10SM CLR 07/04 A3026 RMK AO2 SLP249 T00720044
cycle: 2

Station Type Date Time Source
KGAG TAF 2018/03/21 06:22 UTC NOAA

TAF KGAG 210520Z 2106/2206 VRB04KT P6SM SCT250
FM211300 16008KT P6SM SCT250
FM211800 18012G22KT P6SM BKN250

Example: see airport list